Time;durP1;ratioP1;P1;durP2;ratioP2;P2;SDS_P1;SDS_P2;PMS_P1;PMS_P2;Temp;Humidity;BMP_temperature;BMP_pressure;BME280_temperature;BME280_humidity;BME280_pressure;Samples;Min_cycle;Max_cycle;Signal;HPM_P1;HPM_P2
2021/07/04 00:02:11;;;;;;;16.48;9.10;;;26.10;73.40;;;;;;4875533;29;20061;-57
2021/07/04 00:04:38;;;;;;;12.68;7.85;;;26.10;73.40;;;;;;4875785;29;20641;-57
2021/07/04 00:07:04;;;;;;;11.95;8.45;;;26.10;73.50;;;;;;4875878;29;20506;-57
2021/07/04 00:09:31;;;;;;;11.65;8.05;;;26.10;73.40;;;;;;4875572;29;20057;-56
2021/07/04 00:11:57;;;;;;;8.23;7.43;;;26.10;73.40;;;;;;4864334;29;20155;-56
2021/07/04 00:14:24;;;;;;;13.65;8.35;;;26.10;73.50;;;;;;4875718;29;20140;-56
2021/07/04 00:16:51;;;;;;;10.93;7.85;;;26.10;73.50;;;;;;4875325;29;20084;-58
2021/07/04 00:19:17;;;;;;;17.27;8.00;;;26.10;73.50;;;;;;4875680;29;20500;-57
2021/07/04 00:21:43;;;;;;;10.20;8.27;;;26.10;73.30;;;;;;4875502;29;20069;-56
2021/07/04 00:24:09;;;;;;;11.50;7.35;;;26.10;73.40;;;;;;4875484;29;20060;-56
2021/07/04 00:26:35;;;;;;;20.27;8.68;;;26.10;73.50;;;;;;4874076;29;20204;-56
2021/07/04 00:29:01;;;;;;;10.98;8.45;;;26.10;73.50;;;;;;4875616;29;20573;-57
2021/07/04 00:31:29;;;;;;;11.15;7.90;;;26.10;73.40;;;;;;4873720;29;20478;-57
2021/07/04 00:33:56;;;;;;;9.95;7.97;;;26.20;73.60;;;;;;4875425;29;20088;-57
2021/07/04 00:36:22;;;;;;;10.25;7.30;;;26.10;73.40;;;;;;4883785;29;20053;-56
2021/07/04 00:38:48;;;;;;;13.23;7.80;;;26.10;73.60;;;;;;4875309;29;20068;-56
2021/07/04 00:41:14;;;;;;;12.57;7.68;;;26.10;73.60;;;;;;4875120;29;20093;-57
2021/07/04 00:43:43;;;;;;;10.10;7.57;;;26.10;73.50;;;;;;4875013;29;20109;-57
2021/07/04 00:46:10;;;;;;;13.60;8.38;;;26.10;73.60;;;;;;4873011;29;20057;-57
2021/07/04 00:48:36;;;;;;;14.65;8.30;;;26.10;73.40;;;;;;4872926;29;20143;-57
2021/07/04 00:51:04;;;;;;;19.02;8.15;;;26.10;73.30;;;;;;4868451;29;20511;-57
2021/07/04 00:53:30;;;;;;;15.77;8.85;;;26.20;73.40;;;;;;4866398;29;20529;-56
2021/07/04 00:55:57;;;;;;;8.27;7.53;;;26.10;73.20;;;;;;4875054;29;20201;-56
2021/07/04 00:58:24;;;;;;;9.70;7.45;;;26.20;73.30;;;;;;4874813;29;20578;-57
2021/07/04 01:00:54;;;;;;;14.52;8.57;;;26.10;73.10;;;;;;4872600;29;20506;-56
2021/07/04 01:03:21;;;;;;;9.27;7.88;;;26.20;73.10;;;;;;4872746;29;20168;-57
2021/07/04 01:05:52;;;;;;;9.97;7.70;;;26.20;73.00;;;;;;4867994;29;20069;-57
2021/07/04 01:08:18;;;;;;;12.27;7.55;;;26.20;73.00;;;;;;4868251;29;20778;-57
2021/07/04 01:10:45;;;;;;;8.70;7.72;;;26.20;73.00;;;;;;4868627;29;20499;-56
2021/07/04 01:13:14;;;;;;;14.40;8.10;;;26.20;73.00;;;;;;4868748;29;20425;-57
2021/07/04 01:15:47;;;;;;;13.02;7.82;;;26.20;72.90;;;;;;4855694;29;20132;-56
2021/07/04 01:18:16;;;;;;;14.48;8.07;;;26.20;72.90;;;;;;4856951;29;20061;-57
2021/07/04 01:20:51;;;;;;;10.35;8.25;;;26.10;72.80;;;;;;4872455;29;20567;-56
2021/07/04 01:23:18;;;;;;;8.95;7.20;;;26.10;72.80;;;;;;4873099;29;20057;-57
2021/07/04 01:25:52;;;;;;;9.05;7.55;;;26.10;72.80;;;;;;4872670;29;20056;-56
2021/07/04 01:28:24;;;;;;;16.30;8.13;;;26.10;72.90;;;;;;4873364;29;20152;-56
2021/07/04 01:30:56;;;;;;;19.25;8.88;;;26.10;72.90;;;;;;4874763;29;20057;-57
2021/07/04 01:33:25;;;;;;;23.52;8.63;;;26.00;73.10;;;;;;4874491;29;20112;-57
2021/07/04 01:35:51;;;;;;;12.77;7.25;;;26.00;73.20;;;;;;4875585;29;20060;-56
2021/07/04 01:38:18;;;;;;;12.95;7.78;;;26.00;73.10;;;;;;4872953;29;20425;-57
2021/07/04 01:40:47;;;;;;;15.75;7.65;;;26.00;73.00;;;;;;4871986;29;20140;-57
2021/07/04 01:43:13;;;;;;;12.73;7.05;;;26.10;73.10;;;;;;4860601;29;20116;-57
2021/07/04 01:45:40;;;;;;;8.30;7.47;;;26.10;73.00;;;;;;4873009;29;20510;-57
2021/07/04 01:48:08;;;;;;;12.63;7.95;;;26.00;73.00;;;;;;4874432;29;20144;-57
2021/07/04 01:50:41;;;;;;;11.33;7.50;;;26.00;73.00;;;;;;4872257;29;20065;-57
2021/07/04 01:53:09;;;;;;;11.82;7.45;;;26.00;73.10;;;;;;4873302;29;20127;-57
2021/07/04 01:55:35;;;;;;;10.07;7.32;;;26.10;73.10;;;;;;4873857;29;20063;-57
2021/07/04 01:58:02;;;;;;;11.10;7.72;;;26.00;73.00;;;;;;4872516;29;20060;-56
2021/07/04 02:00:39;;;;;;;14.68;7.75;;;26.00;73.00;;;;;;4871952;29;20088;-58
2021/07/04 02:03:10;;;;;;;13.20;7.57;;;26.10;73.10;;;;;;4877285;29;20064;-57
2021/07/04 02:05:45;;;;;;;11.63;7.55;;;26.10;73.20;;;;;;4875821;29;20135;-57
2021/07/04 02:08:16;;;;;;;10.50;7.63;;;26.00;73.10;;;;;;4878102;29;20585;-56
2021/07/04 02:10:47;;;;;;;11.98;8.27;;;26.00;73.10;;;;;;4879150;29;20201;-57
2021/07/04 02:13:15;;;;;;;11.57;8.40;;;26.00;73.20;;;;;;4876015;29;20148;-57
2021/07/04 02:15:47;;;;;;;8.52;7.72;;;26.00;73.20;;;;;;4858592;29;20089;-57
2021/07/04 02:18:34;;;;;;;15.20;7.45;;;26.10;73.20;;;;;;4875284;29;20429;-57
2021/07/04 02:21:32;;;;;;;10.10;7.30;;;26.10;73.10;;;;;;4885926;29;20068;-57
2021/07/04 02:24:18;;;;;;;10.00;7.70;;;26.00;73.00;;;;;;4877715;29;20061;-56
2021/07/04 02:27:05;;;;;;;12.65;8.32;;;26.00;73.00;;;;;;4877307;29;20063;-57
2021/07/04 02:29:40;;;;;;;10.95;7.75;;;26.00;73.10;;;;;;4875369;29;20061;-57
2021/07/04 02:32:12;;;;;;;11.32;8.90;;;26.00;73.20;;;;;;4875774;29;20145;-57
2021/07/04 02:34:38;;;;;;;14.93;7.97;;;26.00;73.20;;;;;;4875170;29;20429;-57
2021/07/04 02:37:05;;;;;;;10.77;8.63;;;25.90;73.20;;;;;;4884784;29;20152;-57
2021/07/04 02:39:44;;;;;;;10.30;8.30;;;26.00;73.30;;;;;;4875751;29;20688;-56
2021/07/04 02:42:12;;;;;;;12.20;7.72;;;25.90;73.30;;;;;;4875221;29;20061;-56
2021/07/04 02:44:38;;;;;;;19.17;9.02;;;26.00;73.40;;;;;;4877080;29;20060;-57
2021/07/04 02:47:06;;;;;;;14.88;8.43;;;26.00;73.30;;;;;;4877641;29;20128;-57
2021/07/04 02:49:33;;;;;;;13.15;8.82;;;26.00;73.30;;;;;;4877547;29;20076;-57
2021/07/04 02:52:02;;;;;;;10.48;7.75;;;26.00;73.30;;;;;;4877159;29;20085;-57
2021/07/04 02:54:28;;;;;;;13.68;9.00;;;26.00;73.30;;;;;;4877248;29;20075;-57
2021/07/04 02:57:05;;;;;;;11.73;8.35;;;26.00;73.30;;;;;;4874741;29;20061;-56
2021/07/04 02:59:34;;;;;;;11.65;7.93;;;26.00;73.40;;;;;;4875534;29;20151;-56
2021/07/04 03:02:00;;;;;;;10.95;8.30;;;26.00;73.30;;;;;;4876976;29;20136;-56
2021/07/04 03:04:27;;;;;;;11.68;8.95;;;26.00;73.30;;;;;;4877044;29;20071;-57
2021/07/04 03:06:55;;;;;;;11.52;9.10;;;26.00;73.40;;;;;;4876793;29;20391;-58
2021/07/04 03:09:22;;;;;;;12.80;8.82;;;26.00;73.50;;;;;;4874938;29;20512;-57
2021/07/04 03:11:49;;;;;;;17.60;9.10;;;26.00;73.40;;;;;;4877705;29;20064;-56
2021/07/04 03:14:16;;;;;;;13.05;9.23;;;25.90;73.50;;;;;;4873924;29;20232;-57
2021/07/04 03:16:42;;;;;;;14.80;8.25;;;25.90;73.50;;;;;;4876564;29;20148;-57
2021/07/04 03:19:08;;;;;;;14.10;8.45;;;25.90;73.40;;;;;;4875028;29;20510;-56
2021/07/04 03:21:35;;;;;;;12.52;8.63;;;26.00;73.50;;;;;;4876567;29;20120;-57
2021/07/04 03:24:01;;;;;;;13.20;8.93;;;26.00;73.30;;;;;;4875023;29;20080;-56
2021/07/04 03:26:28;;;;;;;11.73;8.60;;;26.00;73.30;;;;;;4874673;29;20053;-57
2021/07/04 03:28:57;;;;;;;12.75;8.27;;;26.10;73.30;;;;;;4875215;29;20061;-57
2021/07/04 03:31:32;;;;;;;10.38;8.50;;;26.00;73.40;;;;;;4875338;29;20057;-57
2021/07/04 03:33:59;;;;;;;11.98;8.77;;;26.10;73.40;;;;;;4876603;29;20076;-56
2021/07/04 03:36:30;;;;;;;10.80;7.82;;;26.00;73.30;;;;;;4883710;29;20421;-57
2021/07/04 03:38:57;;;;;;;10.77;8.98;;;26.00;73.30;;;;;;4876278;29;20088;-56
2021/07/04 03:41:23;;;;;;;13.07;8.93;;;26.10;73.20;;;;;;4876418;29;20163;-57
2021/07/04 03:43:49;;;;;;;10.93;8.43;;;26.00;73.10;;;;;;4874287;29;20144;-56
2021/07/04 03:46:16;;;;;;;10.27;8.35;;;26.00;73.40;;;;;;4869037;29;20057;-57
2021/07/04 03:48:46;;;;;;;8.75;7.85;;;26.10;73.20;;;;;;4868903;29;20136;-56
2021/07/04 03:51:22;;;;;;;12.40;8.70;;;26.00;73.10;;;;;;4865240;29;20113;-56
2021/07/04 03:53:49;;;;;;;12.80;8.52;;;26.10;73.00;;;;;;4874102;29;20065;-57
2021/07/04 03:56:19;;;;;;;11.77;8.02;;;26.10;73.00;;;;;;4873683;29;20486;-57
2021/07/04 03:58:45;;;;;;;14.98;8.57;;;26.10;72.80;;;;;;4875785;29;20053;-57
2021/07/04 04:01:19;;;;;;;13.10;7.97;;;26.10;72.80;;;;;;4873873;29;20061;-57
2021/07/04 04:03:49;;;;;;;10.57;8.30;;;26.10;72.90;;;;;;4873822;29;20061;-57
2021/07/04 04:06:16;;;;;;;14.23;8.10;;;26.00;73.00;;;;;;4875736;29;20145;-57
2021/07/04 04:08:47;;;;;;;15.02;7.78;;;26.10;72.90;;;;;;4875693;29;20057;-56
2021/07/04 04:11:19;;;;;;;14.77;7.43;;;26.00;72.90;;;;;;4876138;29;20147;-57
2021/07/04 04:13:51;;;;;;;13.43;7.90;;;26.10;73.00;;;;;;4873841;29;20252;-57
2021/07/04 04:16:22;;;;;;;9.55;7.55;;;26.10;72.90;;;;;;4872763;29;20147;-58
2021/07/04 04:18:50;;;;;;;10.52;8.05;;;26.10;72.80;;;;;;4863040;29;20057;-57
2021/07/04 04:21:17;;;;;;;13.90;7.82;;;26.10;72.70;;;;;;4874366;29;20061;-57
2021/07/04 04:23:50;;;;;;;17.13;8.57;;;26.10;72.60;;;;;;4873805;29;20475;-57
2021/07/04 04:26:21;;;;;;;10.00;7.72;;;26.10;72.70;;;;;;4874202;29;20056;-57
2021/07/04 04:28:49;;;;;;;11.00;6.97;;;26.10;72.60;;;;;;4873403;29;20069;-57
2021/07/04 04:31:15;;;;;;;8.20;6.25;;;26.10;72.50;;;;;;4873223;29;20096;-57
2021/07/04 04:33:41;;;;;;;9.23;7.20;;;26.10;72.70;;;;;;4873424;29;20486;-57
2021/07/04 04:36:07;;;;;;;12.25;7.55;;;26.10;72.70;;;;;;4880747;29;20091;-57
2021/07/04 04:38:33;;;;;;;11.77;7.35;;;26.10;72.80;;;;;;4865642;29;20057;-56
2021/07/04 04:40:59;;;;;;;9.10;6.90;;;26.10;72.50;;;;;;4875409;29;20126;-56
2021/07/04 04:43:25;;;;;;;18.23;6.88;;;26.10;72.40;;;;;;4875301;29;20069;-57
2021/07/04 04:45:51;;;;;;;8.40;6.07;;;26.10;72.20;;;;;;4875024;29;20185;-56
2021/07/04 04:48:17;;;;;;;11.60;6.10;;;26.10;72.10;;;;;;4874964;29;20206;-57
2021/07/04 04:50:44;;;;;;;8.98;5.90;;;26.10;71.90;;;;;;4872921;29;20536;-57
2021/07/04 04:53:10;;;;;;;12.55;6.10;;;26.10;71.80;;;;;;4875099;29;20181;-57
2021/07/04 04:55:36;;;;;;;9.07;5.75;;;26.10;72.00;;;;;;4869823;29;20141;-57
2021/07/04 04:58:02;;;;;;;8.20;5.55;;;26.10;72.10;;;;;;4873921;29;20057;-57
2021/07/04 05:00:28;;;;;;;7.40;5.35;;;26.10;71.80;;;;;;4874709;29;20111;-57
2021/07/04 05:02:54;;;;;;;9.65;5.50;;;26.20;71.80;;;;;;4874866;29;20497;-57
2021/07/04 05:05:22;;;;;;;9.15;6.10;;;26.20;71.90;;;;;;4872420;29;20069;-56
2021/07/04 05:07:48;;;;;;;5.38;4.97;;;26.20;72.00;;;;;;4874674;29;20565;-57
2021/07/04 05:10:14;;;;;;;7.22;5.78;;;26.10;71.90;;;;;;4874003;29;20061;-56
2021/07/04 05:12:40;;;;;;;7.20;5.78;;;26.20;71.70;;;;;;4874681;29;20090;-56
2021/07/04 05:15:06;;;;;;;6.88;5.78;;;26.20;71.90;;;;;;4874494;29;20144;-57
2021/07/04 05:17:32;;;;;;;14.35;5.82;;;26.20;72.00;;;;;;4874869;29;20065;-56
2021/07/04 05:19:58;;;;;;;6.18;5.55;;;26.20;71.90;;;;;;4874822;29;20068;-57
2021/07/04 05:22:24;;;;;;;10.55;5.75;;;26.20;71.90;;;;;;4874558;29;20718;-57
2021/07/04 05:24:51;;;;;;;6.03;5.28;;;26.20;71.60;;;;;;4874302;29;20565;-57
2021/07/04 05:27:17;;;;;;;5.25;4.65;;;26.30;71.80;;;;;;4874422;29;20581;-57
2021/07/04 05:29:43;;;;;;;6.07;5.15;;;26.20;71.80;;;;;;4874416;29;20144;-57
2021/07/04 05:32:09;;;;;;;7.05;6.35;;;26.30;71.80;;;;;;4874344;29;20185;-56
2021/07/04 05:34:35;;;;;;;11.07;5.80;;;26.30;71.80;;;;;;4874110;29;20063;-57
2021/07/04 05:37:01;;;;;;;6.03;5.57;;;26.30;71.80;;;;;;4874252;29;20144;-57
2021/07/04 05:39:29;;;;;;;10.93;6.03;;;26.30;72.00;;;;;;4871098;29;20140;-57
2021/07/04 05:41:55;;;;;;;8.48;5.78;;;26.30;71.90;;;;;;4874132;29;20061;-57
2021/07/04 05:44:21;;;;;;;8.07;5.22;;;26.30;72.10;;;;;;4874066;29;20152;-56
2021/07/04 05:46:48;;;;;;;7.03;6.40;;;26.30;72.00;;;;;;4874242;29;20242;-57
2021/07/04 05:49:14;;;;;;;10.88;6.28;;;26.30;72.30;;;;;;4874089;29;20120;-57
2021/07/04 05:51:41;;;;;;;9.18;6.05;;;26.30;72.30;;;;;;4874267;29;20668;-57
2021/07/04 05:54:07;;;;;;;7.57;6.28;;;26.30;72.10;;;;;;4874446;29;20131;-56
2021/07/04 05:56:32;;;;;;;6.05;5.55;;;26.30;72.10;;;;;;4874379;29;20088;-56
2021/07/04 05:58:59;;;;;;;5.75;5.18;;;26.30;72.10;;;;;;4874043;29;20131;-56
2021/07/04 06:01:25;;;;;;;5.82;5.32;;;26.30;72.20;;;;;;4873991;29;20068;-56
2021/07/04 06:03:51;;;;;;;7.93;5.85;;;26.30;72.20;;;;;;4874230;29;20588;-56
2021/07/04 06:06:17;;;;;;;8.88;4.88;;;26.30;72.30;;;;;;4873984;29;20581;-56
2021/07/04 06:08:43;;;;;;;5.97;5.43;;;26.30;72.30;;;;;;4874007;29;20168;-56
2021/07/04 06:11:09;;;;;;;5.28;4.88;;;26.30;72.40;;;;;;4875363;29;20069;-55
2021/07/04 06:13:35;;;;;;;8.57;4.85;;;26.30;72.50;;;;;;4873994;29;20186;-56
2021/07/04 06:16:01;;;;;;;11.30;4.97;;;26.30;72.50;;;;;;4874313;29;20061;-55
2021/07/04 06:18:28;;;;;;;5.78;5.07;;;26.20;72.50;;;;;;4873697;29;20156;-55
2021/07/04 06:20:55;;;;;;;8.35;5.28;;;26.20;72.50;;;;;;4874098;29;20148;-58
2021/07/04 06:23:21;;;;;;;9.57;4.80;;;26.20;72.50;;;;;;4873062;29;20312;-56
2021/07/04 06:25:47;;;;;;;5.15;4.65;;;26.20;71.80;;;;;;4872903;29;20084;-56
2021/07/04 06:28:13;;;;;;;7.68;5.88;;;26.20;72.20;;;;;;4873733;29;20544;-56
2021/07/04 06:30:39;;;;;;;6.57;5.13;;;26.20;72.30;;;;;;4873897;29;20184;-60
2021/07/04 06:33:07;;;;;;;7.63;5.40;;;26.20;72.10;;;;;;4875595;29;20061;-58
2021/07/04 06:35:33;;;;;;;7.20;5.15;;;26.20;72.40;;;;;;4877736;29;20145;-59
2021/07/04 06:38:00;;;;;;;5.90;5.30;;;26.20;72.60;;;;;;4877817;29;20139;-59
2021/07/04 06:40:26;;;;;;;7.57;5.43;;;26.10;72.80;;;;;;4873706;29;20045;-59
2021/07/04 06:42:52;;;;;;;5.43;5.00;;;26.10;73.20;;;;;;4880860;29;20152;-59
2021/07/04 06:45:18;;;;;;;7.65;5.15;;;26.10;72.80;;;;;;4866362;29;20057;-59
2021/07/04 06:47:46;;;;;;;6.97;6.03;;;26.10;72.70;;;;;;4873360;29;20053;-61
2021/07/04 06:50:15;;;;;;;6.72;6.13;;;26.10;72.50;;;;;;4882716;29;20461;-61
2021/07/04 06:52:41;;;;;;;8.23;4.95;;;26.10;72.50;;;;;;4875821;29;20629;-61
2021/07/04 06:55:08;;;;;;;9.68;5.75;;;26.10;72.60;;;;;;4877055;29;20061;-61
2021/07/04 06:57:35;;;;;;;6.97;5.25;;;26.10;72.40;;;;;;4874841;29;20128;-61
2021/07/04 07:00:15;;;;;;;6.30;5.28;;;26.10;72.60;;;;;;4877260;29;20474;-62
2021/07/04 07:02:42;;;;;;;9.02;5.43;;;26.10;72.60;;;;;;4877175;29;20200;-61
2021/07/04 07:05:10;;;;;;;6.00;5.45;;;26.00;72.10;;;;;;4876914;29;20069;-60
2021/07/04 07:07:36;;;;;;;8.38;5.93;;;26.00;72.10;;;;;;4877114;29;20057;-60
2021/07/04 07:10:07;;;;;;;5.70;5.20;;;26.00;72.20;;;;;;4878846;29;20143;-61
2021/07/04 07:12:33;;;;;;;14.00;6.35;;;26.00;72.40;;;;;;4886042;29;20060;-61
2021/07/04 07:15:00;;;;;;;7.20;5.55;;;25.90;72.70;;;;;;4875262;29;20422;-62
2021/07/04 07:17:27;;;;;;;11.75;5.85;;;25.90;72.70;;;;;;4876245;29;20084;-56
2021/07/04 07:19:53;;;;;;;6.20;5.70;;;26.00;72.80;;;;;;4874504;29;20061;-57
2021/07/04 07:22:20;;;;;;;9.02;6.43;;;25.90;72.80;;;;;;4873823;29;20052;-58
2021/07/04 07:24:47;;;;;;;7.07;6.50;;;25.90;73.00;;;;;;4875046;29;20061;-57
2021/07/04 07:27:13;;;;;;;7.15;6.55;;;26.00;73.20;;;;;;4876415;29;20536;-57
2021/07/04 07:29:40;;;;;;;7.25;6.63;;;26.00;73.20;;;;;;4876526;29;20061;-57
2021/07/04 07:32:09;;;;;;;10.52;7.35;;;26.00;73.40;;;;;;4873262;29;20144;-63
2021/07/04 07:34:35;;;;;;;7.95;7.15;;;26.00;73.60;;;;;;4873052;29;20474;-62
2021/07/04 07:37:01;;;;;;;7.13;6.47;;;26.10;74.00;;;;;;4876223;29;20403;-63
2021/07/04 07:39:27;;;;;;;9.25;6.22;;;26.10;74.20;;;;;;4876309;29;20532;-60
2021/07/04 07:41:53;;;;;;;7.97;7.35;;;26.20;74.10;;;;;;4878631;29;20061;-60
2021/07/04 07:44:19;;;;;;;8.40;6.70;;;26.20;74.10;;;;;;4879513;29;20083;-60
2021/07/04 07:46:55;;;;;;;7.43;6.85;;;26.30;74.20;;;;;;4874874;29;20531;-61
2021/07/04 07:49:21;;;;;;;8.00;7.38;;;26.30;74.20;;;;;;4876022;29;20491;-62
2021/07/04 07:51:49;;;;;;;8.25;7.05;;;26.30;74.10;;;;;;4870017;29;20092;-61
2021/07/04 07:54:19;;;;;;;11.35;7.50;;;26.30;74.80;;;;;;4876035;29;20144;-63
2021/07/04 07:56:47;;;;;;;8.02;7.15;;;26.30;74.10;;;;;;4873696;29;20548;-62
2021/07/04 07:59:13;;;;;;;8.55;7.80;;;26.30;74.10;;;;;;4873781;29;20419;-62
2021/07/04 08:01:40;;;;;;;7.80;7.10;;;26.30;74.10;;;;;;4873367;29;20143;-63
2021/07/04 08:04:10;;;;;;;8.98;7.72;;;26.30;74.10;;;;;;4873272;29;20491;-65
2021/07/04 08:06:36;;;;;;;9.70;7.65;;;26.30;74.00;;;;;;4870833;29;20076;-64
2021/07/04 08:09:05;;;;;;;16.60;8.18;;;26.40;74.20;;;;;;4860930;29;20190;-68
2021/07/04 08:11:46;;;;;;;9.90;8.43;;;26.30;74.40;;;;;;4869150;29;20057;-61
2021/07/04 08:14:13;;;;;;;23.33;7.85;;;26.30;74.70;;;;;;4873976;29;20143;-71
2021/07/04 08:16:45;;;;;;;9.57;8.07;;;26.30;74.60;;;;;;4872678;29;20060;-67
2021/07/04 08:19:11;;;;;;;11.10;8.88;;;26.40;74.10;;;;;;4874896;29;20544;-64
2021/07/04 08:21:37;;;;;;;9.75;8.75;;;26.30;73.80;;;;;;4874776;29;20428;-66
2021/07/04 08:24:03;;;;;;;10.73;9.63;;;26.30;74.00;;;;;;4875106;29;20060;-66
2021/07/04 08:26:29;;;;;;;9.75;8.85;;;26.30;74.30;;;;;;4874960;29;20170;-67
2021/07/04 08:28:55;;;;;;;22.00;9.88;;;26.30;74.30;;;;;;4874334;29;20446;-67
2021/07/04 08:31:25;;;;;;;12.52;8.70;;;26.30;74.30;;;;;;4871732;29;20172;-67
2021/07/04 08:33:53;;;;;;;10.02;9.05;;;26.20;74.30;;;;;;4874125;29;20068;-71
2021/07/04 08:36:19;;;;;;;11.27;9.45;;;26.30;74.40;;;;;;4863281;29;20931;-70
2021/07/04 08:38:45;;;;;;;10.38;9.20;;;26.30;74.30;;;;;;4865876;29;20517;-72
2021/07/04 08:41:13;;;;;;;12.25;9.82;;;26.30;74.20;;;;;;4868148;29;20072;-63
2021/07/04 08:43:40;;;;;;;10.88;9.88;;;26.30;74.20;;;;;;4864577;29;20136;-71
2021/07/04 08:46:06;;;;;;;12.85;9.50;;;26.30;74.30;;;;;;4871170;29;20137;-63
2021/07/04 08:48:37;;;;;;;15.95;10.07;;;26.40;74.30;;;;;;4856247;29;20599;-63
2021/07/04 08:51:07;;;;;;;19.77;11.10;;;26.40;74.30;;;;;;4859504;29;20184;-66
2021/07/04 08:53:34;;;;;;;17.70;9.80;;;26.40;74.30;;;;;;4858319;29;20113;-69
2021/07/04 08:56:00;;;;;;;16.30;10.50;;;26.40;74.40;;;;;;4859957;29;20088;-62
2021/07/04 08:58:28;;;;;;;10.98;10.00;;;26.40;74.40;;;;;;4858517;29;20697;-62
2021/07/04 09:01:21;;;;;;;10.98;9.93;;;26.40;74.30;;;;;;4872582;29;20482;-61
2021/07/04 09:04:06;;;;;;;12.25;9.75;;;26.40;74.20;;;;;;4873516;29;20065;-59
2021/07/04 09:06:45;;;;;;;11.35;10.15;;;26.40;74.20;;;;;;4864333;29;20061;-59
2021/07/04 09:09:25;;;;;;;16.95;10.10;;;26.40;74.10;;;;;;4874993;29;20127;-60
2021/07/04 09:11:57;;;;;;;38.13;11.02;;;26.40;74.00;;;;;;4879887;29;20846;-59
2021/07/04 09:14:37;;;;;;;16.10;11.23;;;26.50;73.90;;;;;;4873912;29;20143;-59
2021/07/04 09:17:05;;;;;;;10.75;9.70;;;26.50;73.90;;;;;;4873050;29;20067;-59
2021/07/04 09:19:32;;;;;;;10.88;9.85;;;26.40;73.60;;;;;;4872494;29;20174;-59
2021/07/04 09:22:08;;;;;;;16.70;11.15;;;26.50;73.60;;;;;;4872659;29;20057;-59
2021/07/04 09:24:43;;;;;;;14.05;10.88;;;26.50;73.80;;;;;;4873136;29;20065;-59
2021/07/04 09:27:14;;;;;;;14.68;10.70;;;26.50;73.80;;;;;;4874119;29;20063;-59
2021/07/04 09:29:53;;;;;;;13.45;10.73;;;26.50;73.90;;;;;;4874541;29;20140;-59
2021/07/04 09:32:28;;;;;;;12.77;11.57;;;26.40;73.90;;;;;;4874403;29;20061;-59
2021/07/04 09:34:56;;;;;;;14.73;11.85;;;26.50;74.00;;;;;;4874498;29;20573;-59
2021/07/04 09:37:31;;;;;;;15.55;12.45;;;26.50;74.00;;;;;;4871172;29;20139;-59
2021/07/04 09:40:12;;;;;;;12.77;11.43;;;26.50;74.00;;;;;;4874445;29;20085;-59
2021/07/04 09:42:53;;;;;;;13.00;11.77;;;26.40;74.10;;;;;;4874322;29;20197;-59
2021/07/04 09:45:20;;;;;;;16.02;12.15;;;26.40;74.10;;;;;;4874505;29;20089;-59
2021/07/04 09:47:57;;;;;;;16.15;12.80;;;26.50;74.00;;;;;;4881099;29;20053;-59
2021/07/04 09:50:24;;;;;;;13.02;11.70;;;26.50;74.10;;;;;;4874357;29;20193;-59
2021/07/04 09:52:58;;;;;;;13.23;11.88;;;26.40;73.90;;;;;;4874309;29;20056;-58
2021/07/04 09:55:25;;;;;;;15.25;12.40;;;26.40;74.00;;;;;;4874070;29;20565;-59
2021/07/04 09:57:52;;;;;;;14.88;12.02;;;26.40;73.90;;;;;;4874462;29;20796;-59
2021/07/04 10:00:19;;;;;;;15.05;12.25;;;26.40;73.90;;;;;;4874261;29;20053;-59
2021/07/04 10:03:05;;;;;;;12.90;11.70;;;26.50;74.00;;;;;;4860729;29;20136;-58
2021/07/04 10:05:31;;;;;;;13.40;11.85;;;26.50;74.00;;;;;;4874101;29;20057;-59
2021/07/04 10:07:57;;;;;;;13.80;12.05;;;26.50;73.90;;;;;;4873990;29;20089;-59
2021/07/04 10:10:23;;;;;;;15.50;12.10;;;26.50;73.90;;;;;;4876410;29;20525;-59
2021/07/04 10:12:49;;;;;;;14.60;12.32;;;26.50;73.90;;;;;;4874173;29;20061;-59
2021/07/04 10:15:15;;;;;;;15.48;13.70;;;26.50;73.80;;;;;;4860556;29;20085;-59
2021/07/04 10:17:44;;;;;;;14.38;12.98;;;26.50;73.70;;;;;;4874054;29;20088;-59
2021/07/04 10:20:11;;;;;;;13.73;12.43;;;26.50;73.70;;;;;;4873984;29;20425;-59
2021/07/04 10:22:40;;;;;;;14.95;12.65;;;26.50;73.60;;;;;;4874726;29;20099;-59
2021/07/04 10:25:07;;;;;;;14.15;12.68;;;26.50;73.70;;;;;;4877677;29;20086;-59
2021/07/04 10:27:38;;;;;;;14.93;13.43;;;26.50;73.60;;;;;;4877830;29;20061;-59
2021/07/04 10:30:05;;;;;;;15.82;12.77;;;26.50;73.60;;;;;;4877404;29;20116;-59
2021/07/04 10:32:32;;;;;;;15.05;13.43;;;26.50;73.60;;;;;;4872706;29;20150;-59
2021/07/04 10:35:09;;;;;;;14.18;12.77;;;26.50;73.60;;;;;;4877421;29;20144;-59
2021/07/04 10:37:38;;;;;;;14.88;13.38;;;26.50;73.60;;;;;;4869462;29;20148;-59
2021/07/04 10:40:17;;;;;;;17.33;14.05;;;26.50;73.60;;;;;;4877221;29;20484;-59
2021/07/04 10:42:43;;;;;;;15.13;13.65;;;26.50;73.60;;;;;;4877347;29;20147;-59
2021/07/04 10:45:30;;;;;;;16.42;14.05;;;26.50;73.50;;;;;;4877195;29;20060;-59
2021/07/04 10:48:18;;;;;;;16.38;14.68;;;26.50;73.50;;;;;;4883454;29;20533;-59
2021/07/04 10:51:04;;;;;;;15.30;13.80;;;26.50;73.50;;;;;;4876886;29;20065;-59
2021/07/04 10:53:55;;;;;;;15.55;13.95;;;26.50;73.50;;;;;;4877221;29;20181;-59
2021/07/04 10:56:33;;;;;;;16.50;14.60;;;26.50;73.50;;;;;;4869754;29;20139;-59
2021/07/04 10:59:13;;;;;;;16.25;14.65;;;26.50;73.50;;;;;;4877172;29;20084;-58
2021/07/04 11:02:00;;;;;;;17.90;14.82;;;26.50;73.40;;;;;;4888580;29;20056;-59
2021/07/04 11:04:32;;;;;;;16.15;14.63;;;26.50;73.50;;;;;;4877198;29;20104;-59
2021/07/04 11:07:03;;;;;;;16.05;14.35;;;26.50;73.40;;;;;;4877024;29;20059;-59
2021/07/04 11:09:51;;;;;;;16.90;15.20;;;26.50;73.40;;;;;;4876316;29;20117;-59
2021/07/04 11:12:34;;;;;;;15.57;14.00;;;26.50;73.50;;;;;;4864611;29;20065;-59
2021/07/04 11:15:13;;;;;;;23.10;14.90;;;26.50;73.50;;;;;;4876819;29;20065;-60
2021/07/04 11:17:58;;;;;;;16.70;14.65;;;26.50;73.50;;;;;;4876949;29;20144;-59
2021/07/04 11:20:39;;;;;;;17.58;15.73;;;26.50;73.50;;;;;;4876458;29;20164;-59
2021/07/04 11:23:10;;;;;;;17.83;15.52;;;26.50;73.40;;;;;;4876702;29;20065;-59
2021/07/04 11:25:47;;;;;;;18.00;15.27;;;26.50;73.30;;;;;;4876540;29;20061;-59
2021/07/04 11:28:16;;;;;;;16.02;14.43;;;26.50;73.40;;;;;;4876655;29;20514;-59
2021/07/04 11:30:52;;;;;;;17.48;15.63;;;26.50;73.20;;;;;;4876694;29;20204;-59
2021/07/04 11:36:15;;;;;;;17.02;15.25;;;26.50;73.20;;;;;;4871418;29;20430;-59
2021/07/04 11:39:05;;;;;;;16.50;14.90;;;26.50;73.10;;;;;;4873383;29;20152;-59
2021/07/04 11:41:40;;;;;;;17.27;15.13;;;26.50;73.20;;;;;;4876778;29;20161;-59
2021/07/04 11:44:08;;;;;;;18.73;16.73;;;26.50;73.10;;;;;;4876350;29;20192;-59
2021/07/04 11:46:37;;;;;;;18.27;16.40;;;26.50;73.10;;;;;;4876174;29;20139;-59
2021/07/04 11:49:08;;;;;;;20.17;16.50;;;26.50;73.10;;;;;;4876472;29;20057;-59
2021/07/04 11:51:54;;;;;;;18.08;16.08;;;26.60;73.10;;;;;;4876399;29;20510;-59
2021/07/04 11:54:29;;;;;;;18.10;16.20;;;26.50;73.10;;;;;;4875927;29;20144;-59
2021/07/04 11:57:29;;;;;;;19.23;16.98;;;26.60;73.10;;;;;;4876153;29;20061;-59
2021/07/04 11:59:57;;;;;;;17.85;15.93;;;26.50;73.00;;;;;;4876201;29;20091;-59
2021/07/04 12:02:25;;;;;;;18.08;16.27;;;26.60;73.20;;;;;;4876180;29;20068;-59
2021/07/04 12:04:51;;;;;;;18.50;16.60;;;26.60;73.10;;;;;;4875858;29;20096;-59
2021/07/04 12:07:24;;;;;;;19.50;17.02;;;26.60;73.10;;;;;;4875449;29;20068;-59
2021/07/04 12:09:53;;;;;;;18.90;16.95;;;26.50;73.00;;;;;;4876186;29;20108;-59
2021/07/04 12:12:28;;;;;;;18.60;16.70;;;26.60;73.10;;;;;;4877718;29;20140;-59
2021/07/04 12:14:57;;;;;;;19.30;17.20;;;26.60;73.10;;;;;;4875885;29;20057;-59
2021/07/04 12:17:45;;;;;;;19.55;16.88;;;26.60;73.00;;;;;;4875810;29;20096;-59
2021/07/04 12:20:19;;;;;;;19.77;17.55;;;26.60;73.10;;;;;;4875472;29;20064;-59
2021/07/04 12:22:50;;;;;;;21.52;18.77;;;26.60;73.00;;;;;;4875745;29;20069;-59
2021/07/04 12:25:48;;;;;;;20.42;18.33;;;26.60;73.00;;;;;;4875464;29;20148;-60
2021/07/04 12:28:19;;;;;;;19.50;17.27;;;26.50;73.00;;;;;;4875145;29;20057;-59
2021/07/04 12:30:47;;;;;;;19.98;17.85;;;26.60;73.00;;;;;;4866627;29;20079;-59
2021/07/04 12:33:21;;;;;;;22.52;18.33;;;26.60;73.00;;;;;;4875285;29;20109;-59
2021/07/04 12:35:54;;;;;;;19.77;17.77;;;26.60;73.00;;;;;;4875356;29;20136;-59
2021/07/04 12:38:50;;;;;;;20.77;18.58;;;26.60;72.90;;;;;;4874756;29;20109;-59
2021/07/04 12:41:16;;;;;;;19.98;17.98;;;26.60;73.00;;;;;;4871459;29;20107;-59
2021/07/04 12:43:48;;;;;;;19.05;17.02;;;26.60;73.00;;;;;;4875439;29;20069;-59
2021/07/04 12:46:28;;;;;;;18.65;16.65;;;26.60;73.00;;;;;;4873978;29;20061;-59
2021/07/04 12:48:56;;;;;;;16.60;14.93;;;26.60;73.00;;;;;;4875360;29;20062;-59
2021/07/04 12:51:28;;;;;;;17.70;14.07;;;26.60;72.80;;;;;;4874909;29;20065;-59
2021/07/04 12:53:54;;;;;;;17.93;13.30;;;26.60;72.70;;;;;;4875087;29;20370;-59